sensor_id;sensor_type;location;lat;lon;timestamp;pressure;altitude;pressure_sealevel;temperature;humidity
55263;BME280;41125;48.752;9.168;2023-04-20T00:00:30;96847.06;;;4.29;72.19
55263;BME280;41125;48.752;9.168;2023-04-20T00:01:01;96848.38;;;4.27;72.37
55263;BME280;41125;48.752;9.168;2023-04-20T00:01:33;96843.00;;;4.27;71.97
55263;BME280;41125;48.752;9.168;2023-04-20T00:02:04;96845.13;;;4.25;72.47
55263;BME280;41125;48.752;9.168;2023-04-20T00:02:37;96841.88;;;4.23;72.14
55263;BME280;41125;48.752;9.168;2023-04-20T00:03:08;96839.69;;;4.15;71.71
55263;BME280;41125;48.752;9.168;2023-04-20T00:03:39;96845.56;;;4.12;71.70
55263;BME280;41125;48.752;9.168;2023-04-20T00:04:11;96835.88;;;4.11;71.59
55263;BME280;41125;48.752;9.168;2023-04-20T00:04:43;96838.56;;;4.11;71.37
55263;BME280;41125;48.752;9.168;2023-04-20T00:05:21;96842.62;;;4.13;71.43
55263;BME280;41125;48.752;9.168;2023-04-20T00:05:53;96841.81;;;4.13;71.37
55263;BME280;41125;48.752;9.168;2023-04-20T00:06:26;96837.75;;;4.10;71.80
55263;BME280;41125;48.752;9.168;2023-04-20T00:07:12;96837.94;;;4.03;71.42
55263;BME280;41125;48.752;9.168;2023-04-20T00:07:43;96834.69;;;4.01;72.24
55263;BME280;41125;48.752;9.168;2023-04-20T00:08:15;96833.06;;;4.00;72.08
55263;BME280;41125;48.752;9.168;2023-04-20T00:08:47;96833.88;;;4.01;72.58
55263;BME280;41125;48.752;9.168;2023-04-20T00:09:19;96836.00;;;3.99;72.61
55263;BME280;41125;48.752;9.168;2023-04-20T00:09:50;96829.00;;;3.98;72.77
55263;BME280;41125;48.752;9.168;2023-04-20T00:10:21;96827.41;;;3.97;72.56
55263;BME280;41125;48.752;9.168;2023-04-20T00:10:52;96832.75;;;3.97;72.60
55263;BME280;41125;48.752;9.168;2023-04-20T00:11:23;96837.31;;;3.96;72.80
55263;BME280;41125;48.752;9.168;2023-04-20T00:11:57;96832.75;;;3.97;73.09
55263;BME280;41125;48.752;9.168;2023-04-20T00:12:29;96825.78;;;3.96;73.06
55263;BME280;41125;48.752;9.168;2023-04-20T00:13:03;96832.44;;;3.93;73.04
55263;BME280;41125;48.752;9.168;2023-04-20T00:13:35;96829.22;;;3.91;73.47
55263;BME280;41125;48.752;9.168;2023-04-20T00:14:06;96828.41;;;3.91;73.52
55263;BME280;41125;48.752;9.168;2023-04-20T00:14:37;96823.84;;;3.91;73.47
55263;BME280;41125;48.752;9.168;2023-04-20T00:15:09;96829.22;;;3.91;73.42
55263;BME280;41125;48.752;9.168;2023-04-20T00:15:42;96820.91;;;3.93;73.01
55263;BME280;41125;48.752;9.168;2023-04-20T00:16:13;96825.47;;;3.92;73.42
55263;BME280;41125;48.752;9.168;2023-04-20T00:16:45;96820.09;;;3.92;72.98
55263;BME280;41125;48.752;9.168;2023-04-20T00:17:17;96818.47;;;3.91;73.29
55263;BME280;41125;48.752;9.168;2023-04-20T00:17:49;96822.22;;;3.90;73.19
55263;BME280;41125;48.752;9.168;2023-04-20T00:18:20;96811.97;;;3.87;73.21
55263;BME280;41125;48.752;9.168;2023-04-20T00:18:53;96816.53;;;3.87;72.92
55263;BME280;41125;48.752;9.168;2023-04-20T00:19:25;96815.72;;;3.86;73.12
55263;BME280;41125;48.752;9.168;2023-04-20T00:19:58;96825.66;;;3.86;73.92
55263;BME280;41125;48.752;9.168;2023-04-20T00:20:29;96824.03;;;3.85;74.23
55263;BME280;41125;48.752;9.168;2023-04-20T00:21:00;96821.59;;;3.83;74.80
55263;BME280;41125;48.752;9.168;2023-04-20T00:21:32;96815.66;;;3.81;75.51
55263;BME280;41125;48.752;9.168;2023-04-20T00:22:04;96821.00;;;3.76;75.15
55263;BME280;41125;48.752;9.168;2023-04-20T00:22:35;96814.00;;;3.75;75.10
55263;BME280;41125;48.752;9.168;2023-04-20T00:23:07;96815.63;;;3.76;74.50
55263;BME280;41125;48.752;9.168;2023-04-20T00:23:38;96818.06;;;3.78;74.75
55263;BME280;41125;48.752;9.168;2023-04-20T00:24:11;96812.69;;;3.78;74.27
55263;BME280;41125;48.752;9.168;2023-04-20T00:24:45;96805.22;;;3.80;74.25
55263;BME280;41125;48.752;9.168;2023-04-20T00:25:19;96815.13;;;3.79;73.58
55263;BME280;41125;48.752;9.168;2023-04-20T00:25:50;96813.50;;;3.78;73.70
55263;BME280;41125;48.752;9.168;2023-04-20T00:26:22;96807.34;;;3.78;73.42
55263;BME280;41125;48.752;9.168;2023-04-20T00:26:53;96811.88;;;3.77;73.51
55263;BME280;41125;48.752;9.168;2023-04-20T00:27:25;96811.88;;;3.77;73.50
55263;BME280;41125;48.752;9.168;2023-04-20T00:27:56;96810.25;;;3.76;74.41
55263;BME280;41125;48.752;9.168;2023-04-20T00:28:28;96811.31;;;3.75;74.47
55263;BME280;41125;48.752;9.168;2023-04-20T00:29:00;96806.47;;;3.72;74.53
55263;BME280;41125;48.752;9.168;2023-04-20T00:29:32;96805.91;;;3.70;74.13
55263;BME280;41125;48.752;9.168;2023-04-20T00:30:04;96808.59;;;3.70;74.51
55263;BME280;41125;48.752;9.168;2023-04-20T00:30:37;96808.59;;;3.70;74.38
55263;BME280;41125;48.752;9.168;2023-04-20T00:31:08;96810.69;;;3.68;74.76
55263;BME280;41125;48.752;9.168;2023-04-20T00:31:40;96808.03;;;3.68;74.36
55263;BME280;41125;48.752;9.168;2023-04-20T00:32:15;96803.72;;;3.67;74.61
55263;BME280;41125;48.752;9.168;2023-04-20T00:32:46;96810.13;;;3.66;74.24
55263;BME280;41125;48.752;9.168;2023-04-20T00:33:18;96808.75;;;3.63;74.24
55263;BME280;41125;48.752;9.168;2023-04-20T00:33:49;96804.66;;;3.56;74.62
55263;BME280;41125;48.752;9.168;2023-04-20T00:34:21;96804.09;;;3.54;75.20
55263;BME280;41125;48.752;9.168;2023-04-20T00:34:52;96805.16;;;3.53;74.75
55263;BME280;41125;48.752;9.168;2023-04-20T00:35:24;96805.16;;;3.53;74.74
55263;BME280;41125;48.752;9.168;2023-04-20T00:35:56;96807.00;;;3.52;74.67
55263;BME280;41125;48.752;9.168;2023-04-20T00:36:27;96805.16;;;3.53;74.87
55263;BME280;41125;48.752;9.168;2023-04-20T00:36:59;96799.78;;;3.53;74.58
55263;BME280;41125;48.752;9.168;2023-04-20T00:37:30;96801.41;;;3.54;74.60
55263;BME280;41125;48.752;9.168;2023-04-20T00:38:02;96801.41;;;3.54;74.77
55263;BME280;41125;48.752;9.168;2023-04-20T00:38:34;96798.97;;;3.52;75.00
55263;BME280;41125;48.752;9.168;2023-04-20T00:39:08;96801.91;;;3.51;75.07
55263;BME280;41125;48.752;9.168;2023-04-20T00:39:39;96793.84;;;3.51;75.05
55263;BME280;41125;48.752;9.168;2023-04-20T00:40:11;96803.53;;;3.52;74.69
55263;BME280;41125;48.752;9.168;2023-04-20T00:40:43;96800.59;;;3.53;74.59
55263;BME280;41125;48.752;9.168;2023-04-20T00:41:14;96801.66;;;3.52;74.70
55263;BME280;41125;48.752;9.168;2023-04-20T00:41:45;96796.53;;;3.51;74.62
55263;BME280;41125;48.752;9.168;2023-04-20T00:42:17;96796.78;;;3.49;74.58
55263;BME280;41125;48.752;9.168;2023-04-20T00:42:48;96800.28;;;3.50;74.81
55263;BME280;41125;48.752;9.168;2023-04-20T00:43:20;96787.34;;;3.47;74.57
55263;BME280;41125;48.752;9.168;2023-04-20T00:43:52;96796.44;;;3.41;75.42
55263;BME280;41125;48.752;9.168;2023-04-20T00:44:24;96796.94;;;3.37;75.53
55263;BME280;41125;48.752;9.168;2023-04-20T00:44:55;96795.31;;;3.36;75.26
55263;BME280;41125;48.752;9.168;2023-04-20T00:45:27;96789.12;;;3.36;75.35
55263;BME280;41125;48.752;9.168;2023-04-20T00:45:58;96788.31;;;3.35;75.74
55263;BME280;41125;48.752;9.168;2023-04-20T00:46:29;96785.31;;;3.32;75.06
55263;BME280;41125;48.752;9.168;2023-04-20T00:47:01;96793.03;;;3.28;75.67
55263;BME280;41125;48.752;9.168;2023-04-20T00:47:32;96789.81;;;3.26;76.39
55263;BME280;41125;48.752;9.168;2023-04-20T00:48:04;96791.09;;;3.24;76.41
55263;BME280;41125;48.752;9.168;2023-04-20T00:48:35;96783.31;;;3.22;76.37
55263;BME280;41125;48.752;9.168;2023-04-20T00:49:07;96782.50;;;3.22;77.72
55263;BME280;41125;48.752;9.168;2023-04-20T00:49:38;96784.63;;;3.20;77.82
55263;BME280;41125;48.752;9.168;2023-04-20T00:50:11;96782.75;;;3.20;77.44
55263;BME280;41125;48.752;9.168;2023-04-20T00:50:44;96789.72;;;3.21;77.41
55263;BME280;41125;48.752;9.168;2023-04-20T00:51:16;96786.25;;;3.21;77.30
55263;BME280;41125;48.752;9.168;2023-04-20T00:51:47;96788.09;;;3.20;77.75
55263;BME280;41125;48.752;9.168;2023-04-20T00:52:20;96783.81;;;3.19;77.86
55263;BME280;41125;48.752;9.168;2023-04-20T00:52:52;96783.81;;;3.19;77.30
55263;BME280;41125;48.752;9.168;2023-04-20T00:53:24;96782.75;;;3.20;77.19
55263;BME280;41125;48.752;9.168;2023-04-20T00:53:55;96778.75;;;3.23;77.04
55263;BME280;41125;48.752;9.168;2023-04-20T00:54:28;96775.28;;;3.22;76.97
55263;BME280;41125;48.752;9.168;2023-04-20T00:55:00;96783.31;;;3.22;77.17
55263;BME280;41125;48.752;9.168;2023-04-20T00:55:32;96781.69;;;3.21;77.09
55263;BME280;41125;48.752;9.168;2023-04-20T00:56:05;96773.09;;;3.19;77.58
55263;BME280;41125;48.752;9.168;2023-04-20T00:56:37;96780.31;;;3.19;77.59
55263;BME280;41125;48.752;9.168;2023-04-20T00:57:12;96780.56;;;3.17;77.63
55263;BME280;41125;48.752;9.168;2023-04-20T00:57:43;96775.41;;;3.11;78.45
55263;BME280;41125;48.752;9.168;2023-04-20T00:58:15;96777.19;;;3.05;78.29
55263;BME280;41125;48.752;9.168;2023-04-20T00:58:46;96780.12;;;3.03;78.96
55263;BME280;41125;48.752;9.168;2023-04-20T00:59:17;96780.12;;;3.03;78.80
55263;BME280;41125;48.752;9.168;2023-04-20T00:59:49;96769.41;;;3.03;78.61
55263;BME280;41125;48.752;9.168;2023-04-20T01:00:24;96777.19;;;3.05;78.11
55263;BME280;41125;48.752;9.168;2023-04-20T01:00:57;96775.56;;;3.04;77.94
55263;BME280;41125;48.752;9.168;2023-04-20T01:01:28;96771.84;;;3.05;78.20
55263;BME280;41125;48.752;9.168;2023-04-20T01:02:01;96774.78;;;3.03;77.34
55263;BME280;41125;48.752;9.168;2023-04-20T01:02:33;96764.03;;;3.03;77.59
55263;BME280;41125;48.752;9.168;2023-04-20T01:03:05;96772.91;;;3.04;77.54
55263;BME280;41125;48.752;9.168;2023-04-20T01:03:38;96772.56;;;3.00;78.35
55263;BME280;41125;48.752;9.168;2023-04-20T01:04:09;96763.41;;;2.96;77.97
55263;BME280;41125;48.752;9.168;2023-04-20T01:04:43;96769.56;;;2.97;78.29
55263;BME280;41125;48.752;9.168;2023-04-20T01:05:15;96772.25;;;2.97;78.41
55263;BME280;41125;48.752;9.168;2023-04-20T01:05:46;96766.34;;;2.95;78.38
55263;BME280;41125;48.752;9.168;2023-04-20T01:06:17;96768.78;;;2.96;78.00
55263;BME280;41125;48.752;9.168;2023-04-20T01:06:49;96763.41;;;2.96;78.29
55263;BME280;41125;48.752;9.168;2023-04-20T01:07:20;96757.25;;;2.96;78.30
55263;BME280;41125;48.752;9.168;2023-04-20T01:07:51;96765.28;;;2.96;78.53
55263;BME280;41125;48.752;9.168;2023-04-20T01:08:26;96760.47;;;2.98;78.20
55263;BME280;41125;48.752;9.168;2023-04-20T01:08:57;96768.28;;;2.99;78.43
55263;BME280;41125;48.752;9.168;2023-04-20T01:09:28;96764.78;;;2.99;78.09
55263;BME280;41125;48.752;9.168;2023-04-20T01:10:00;96766.16;;;3.01;78.01
55263;BME280;41125;48.752;9.168;2023-04-20T01:10:31;96766.97;;;3.02;77.85
55263;BME280;41125;48.752;9.168;2023-04-20T01:11:03;96758.94;;;3.02;77.89
55263;BME280;41125;48.752;9.168;2023-04-20T01:11:34;96757.06;;;3.02;78.45
55263;BME280;41125;48.752;9.168;2023-04-20T01:12:08;96755.19;;;3.03;78.92
55263;BME280;41125;48.752;9.168;2023-04-20T01:12:39;96752.50;;;3.03;78.39
55263;BME280;41125;48.752;9.168;2023-04-20T01:13:10;96755.75;;;3.05;77.69
55263;BME280;41125;48.752;9.168;2023-04-20T01:13:42;96754.69;;;3.06;77.91
55263;BME280;41125;48.752;9.168;2023-04-20T01:14:14;96752.84;;;3.07;77.91
55263;BME280;41125;48.752;9.168;2023-04-20T01:14:45;96752.59;;;3.08;77.99
55263;BME280;41125;48.752;9.168;2023-04-20T01:15:17;96740.25;;;3.07;77.51
55263;BME280;41125;48.752;9.168;2023-04-20T01:15:48;96749.91;;;3.08;77.35
55263;BME280;41125;48.752;9.168;2023-04-20T01:16:21;96747.47;;;3.07;77.36
55263;BME280;41125;48.752;9.168;2023-04-20T01:16:52;96742.91;;;3.07;77.15
55263;BME280;41125;48.752;9.168;2023-04-20T01:17:24;96742.91;;;3.07;77.35
55263;BME280;41125;48.752;9.168;2023-04-20T01:17:55;96744.53;;;3.08;76.90
55263;BME280;41125;48.752;9.168;2023-04-20T01:18:28;96742.66;;;3.09;76.62
55263;BME280;41125;48.752;9.168;2023-04-20T01:18:59;96742.44;;;3.10;77.06
55263;BME280;41125;48.752;9.168;2023-04-20T01:19:31;96741.63;;;3.10;77.87
55263;BME280;41125;48.752;9.168;2023-04-20T01:20:04;96740.81;;;3.09;78.18
55263;BME280;41125;48.752;9.168;2023-04-20T01:20:40;96740.81;;;3.09;78.28
55263;BME280;41125;48.752;9.168;2023-04-20T01:21:13;96739.19;;;3.08;78.31
55263;BME280;41125;48.752;9.168;2023-04-20T01:21:45;96733.81;;;3.08;78.24
55263;BME280;41125;48.752;9.168;2023-04-20T01:22:21;96730.09;;;3.09;78.39
55263;BME280;41125;48.752;9.168;2023-04-20T01:22:53;96742.44;;;3.10;78.10
55263;BME280;41125;48.752;9.168;2023-04-20T01:23:24;96735.44;;;3.09;77.98
55263;BME280;41125;48.752;9.168;2023-04-20T01:23:55;96737.06;;;3.10;77.77
55263;BME280;41125;48.752;9.168;2023-04-20T01:24:26;96731.94;;;3.09;77.59
55263;BME280;41125;48.752;9.168;2023-04-20T01:25:01;96739.19;;;3.08;77.83
55263;BME280;41125;48.752;9.168;2023-04-20T01:25:32;96728.47;;;3.08;77.83
55263;BME280;41125;48.752;9.168;2023-04-20T01:26:08;96728.47;;;3.08;78.07
55263;BME280;41125;48.752;9.168;2023-04-20T01:26:40;96726.84;;;3.07;78.45
55263;BME280;41125;48.752;9.168;2023-04-20T01:27:15;96725.22;;;3.06;78.46
55263;BME280;41125;48.752;9.168;2023-04-20T01:27:47;96723.59;;;3.05;78.79
55263;BME280;41125;48.752;9.168;2023-04-20T01:28:18;96723.28;;;3.01;78.81
55263;BME280;41125;48.752;9.168;2023-04-20T01:28:49;96726.19;;;3.00;78.92
55263;BME280;41125;48.752;9.168;2023-04-20T01:29:21;96727.81;;;3.01;78.82
55263;BME280;41125;48.752;9.168;2023-04-20T01:29:52;96726.19;;;3.00;78.95
55263;BME280;41125;48.752;9.168;2023-04-20T01:30:23;96724.09;;;3.02;78.91
55263;BME280;41125;48.752;9.168;2023-04-20T01:30:55;96720.34;;;3.03;78.79
55263;BME280;41125;48.752;9.168;2023-04-20T01:31:26;96722.22;;;3.02;78.63
55263;BME280;41125;48.752;9.168;2023-04-20T01:31:57;96719.53;;;3.02;77.84
55263;BME280;41125;48.752;9.168;2023-04-20T01:32:29;96719.78;;;3.01;77.94
55263;BME280;41125;48.752;9.168;2023-04-20T01:33:00;96716.03;;;3.02;77.70
55263;BME280;41125;48.752;9.168;2023-04-20T01:33:32;96716.84;;;3.02;77.75
55263;BME280;41125;48.752;9.168;2023-04-20T01:34:03;96713.12;;;3.03;77.50
55263;BME280;41125;48.752;9.168;2023-04-20T01:34:34;96716.59;;;3.04;77.54
55263;BME280;41125;48.752;9.168;2023-04-20T01:35:07;96720.34;;;3.03;77.48
55263;BME280;41125;48.752;9.168;2023-04-20T01:35:41;96713.38;;;3.02;77.47
55263;BME280;41125;48.752;9.168;2023-04-20T01:36:13;96719.53;;;3.02;77.25
55263;BME280;41125;48.752;9.168;2023-04-20T01:36:45;96715.00;;;3.03;77.37
55263;BME280;41125;48.752;9.168;2023-04-20T01:37:16;96715.78;;;3.03;77.03
55263;BME280;41125;48.752;9.168;2023-04-20T01:37:47;96713.94;;;3.04;77.14
55263;BME280;41125;48.752;9.168;2023-04-20T01:38:19;96712.31;;;3.03;77.05
55263;BME280;41125;48.752;9.168;2023-04-20T01:38:51;96704.44;;;2.96;78.01
55263;BME280;41125;48.752;9.168;2023-04-20T01:39:23;96707.63;;;2.93;78.00
55263;BME280;41125;48.752;9.168;2023-04-20T01:39:55;96704.62;;;2.90;77.85
55263;BME280;41125;48.752;9.168;2023-04-20T01:40:26;96707.63;;;2.93;77.80
55263;BME280;41125;48.752;9.168;2023-04-20T01:40:58;96704.44;;;2.96;77.77
55263;BME280;41125;48.752;9.168;2023-04-20T01:41:29;96708.50;;;2.99;77.13
55263;BME280;41125;48.752;9.168;2023-04-20T01:42:00;96705.81;;;2.99;77.11
55263;BME280;41125;48.752;9.168;2023-04-20T01:42:33;96705.56;;;3.00;77.13
55263;BME280;41125;48.752;9.168;2023-04-20T01:43:07;96702.63;;;3.02;77.10
55263;BME280;41125;48.752;9.168;2023-04-20T01:43:39;96709.06;;;3.01;77.01
55263;BME280;41125;48.752;9.168;2023-04-20T01:44:11;96703.69;;;3.01;77.03
55263;BME280;41125;48.752;9.168;2023-04-20T01:44:42;96701.03;;;3.01;77.01
55263;BME280;41125;48.752;9.168;2023-04-20T01:45:13;96699.41;;;3.00;77.16
55263;BME280;41125;48.752;9.168;2023-04-20T01:45:46;96702.09;;;3.00;76.93
55263;BME280;41125;48.752;9.168;2023-04-20T01:46:17;96699.41;;;3.00;77.23
55263;BME280;41125;48.752;9.168;2023-04-20T01:46:48;96701.84;;;3.01;77.33
55263;BME280;41125;48.752;9.168;2023-04-20T01:47:20;96701.84;;;3.01;77.15
55263;BME280;41125;48.752;9.168;2023-04-20T01:47:51;96703.44;;;3.02;77.30
55263;BME280;41125;48.752;9.168;2023-04-20T01:48:22;96698.09;;;3.02;77.02
55263;BME280;41125;48.752;9.168;2023-04-20T01:48:53;96704.75;;;3.00;77.51
55263;BME280;41125;48.752;9.168;2023-04-20T01:49:25;96694.22;;;2.93;78.07
55263;BME280;41125;48.752;9.168;2023-04-20T01:49:59;96700.87;;;2.91;77.75
55263;BME280;41125;48.752;9.168;2023-04-20T01:50:30;96693.91;;;2.90;77.69
55263;BME280;41125;48.752;9.168;2023-04-20T01:51:03;96702.50;;;2.92;77.66
55263;BME280;41125;48.752;9.168;2023-04-20T01:51:35;96698.75;;;2.93;77.77
55263;BME280;41125;48.752;9.168;2023-04-20T01:52:07;96697.47;;;2.95;77.75
55263;BME280;41125;48.752;9.168;2023-04-20T01:52:38;96700.94;;;2.96;77.17
55263;BME280;41125;48.752;9.168;2023-04-20T01:53:10;96695.59;;;2.96;77.09
55263;BME280;41125;48.752;9.168;2023-04-20T01:53:43;96693.72;;;2.96;77.12
55263;BME280;41125;48.752;9.168;2023-04-20T01:54:14;96694.53;;;2.97;77.28
55263;BME280;41125;48.752;9.168;2023-04-20T01:54:45;96694.53;;;2.97;77.14
55263;BME280;41125;48.752;9.168;2023-04-20T01:55:17;96694.53;;;2.97;77.16
55263;BME280;41125;48.752;9.168;2023-04-20T01:55:49;96694.53;;;2.97;77.01
55263;BME280;41125;48.752;9.168;2023-04-20T01:56:24;96689.19;;;2.97;77.08
55263;BME280;41125;48.752;9.168;2023-04-20T01:56:55;96687.56;;;2.96;77.12
55263;BME280;41125;48.752;9.168;2023-04-20T01:57:27;96696.66;;;2.95;77.18
55263;BME280;41125;48.752;9.168;2023-04-20T01:58:03;96688.03;;;2.93;77.30
55263;BME280;41125;48.752;9.168;2023-04-20T01:58:34;96693.41;;;2.93;77.51
55263;BME280;41125;48.752;9.168;2023-04-20T01:59:06;96692.84;;;2.91;77.89
55263;BME280;41125;48.752;9.168;2023-04-20T01:59:41;96691.72;;;2.87;78.59
55263;BME280;41125;48.752;9.168;2023-04-20T02:00:14;96689.22;;;2.80;78.69
55263;BME280;41125;48.752;9.168;2023-04-20T02:00:45;96685.16;;;2.78;78.81
55263;BME280;41125;48.752;9.168;2023-04-20T02:01:17;96685.69;;;2.75;78.85
55263;BME280;41125;48.752;9.168;2023-04-20T02:01:51;96684.31;;;2.72;78.96
55263;BME280;41125;48.752;9.168;2023-04-20T02:02:23;96684.56;;;2.71;78.98
55263;BME280;41125;48.752;9.168;2023-04-20T02:02:54;96685.84;;;2.68;78.69
55263;BME280;41125;48.752;9.168;2023-04-20T02:03:25;96685.53;;;2.64;79.05
55263;BME280;41125;48.752;9.168;2023-04-20T02:03:57;96682.78;;;2.59;79.11
55263;BME280;41125;48.752;9.168;2023-04-20T02:04:28;96671.50;;;2.57;79.11
55263;BME280;41125;48.752;9.168;2023-04-20T02:05:00;96680.59;;;2.56;78.98
55263;BME280;41125;48.752;9.168;2023-04-20T02:05:31;96680.59;;;2.56;79.32
55263;BME280;41125;48.752;9.168;2023-04-20T02:06:03;96678.72;;;2.57;79.48
55263;BME280;41125;48.752;9.168;2023-04-20T02:06:34;96679.53;;;2.57;79.38
55263;BME280;41125;48.752;9.168;2023-04-20T02:07:05;96678.97;;;2.55;79.36
55263;BME280;41125;48.752;9.168;2023-04-20T02:07:37;96671.19;;;2.54;79.59
55263;BME280;41125;48.752;9.168;2023-04-20T02:08:08;96681.66;;;2.55;79.32
55263;BME280;41125;48.752;9.168;2023-04-20T02:08:39;96679.22;;;2.54;79.15
55263;BME280;41125;48.752;9.168;2023-04-20T02:09:13;96683.28;;;2.56;79.13
55263;BME280;41125;48.752;9.168;2023-04-20T02:09:47;96679.53;;;2.57;79.25
55263;BME280;41125;48.752;9.168;2023-04-20T02:10:21;96684.09;;;2.57;79.30
55263;BME280;41125;48.752;9.168;2023-04-20T02:10:55;96683.59;;;2.60;78.90
55263;BME280;41125;48.752;9.168;2023-04-20T02:11:26;96679.06;;;2.60;78.91
55263;BME280;41125;48.752;9.168;2023-04-20T02:11:57;96681.72;;;2.60;78.74
55263;BME280;41125;48.752;9.168;2023-04-20T02:12:28;96678.50;;;2.58;78.71
55263;BME280;41125;48.752;9.168;2023-04-20T02:13:00;96679.53;;;2.57;78.91
55263;BME280;41125;48.752;9.168;2023-04-20T02:13:31;96675.81;;;2.58;78.75
55263;BME280;41125;48.752;9.168;2023-04-20T02:14:03;96682.78;;;2.59;78.92
55263;BME280;41125;48.752;9.168;2023-04-20T02:14:35;96675.00;;;2.58;78.92
55263;BME280;41125;48.752;9.168;2023-04-20T02:15:07;96675.00;;;2.58;78.98
55263;BME280;41125;48.752;9.168;2023-04-20T02:15:39;96677.13;;;2.56;79.22
55263;BME280;41125;48.752;9.168;2023-04-20T02:16:10;96672.56;;;2.56;79.36
55263;BME280;41125;48.752;9.168;2023-04-20T02:16:42;96672.00;;;2.54;79.65
55263;BME280;41125;48.752;9.168;2023-04-20T02:17:13;96673.06;;;2.53;79.75
55263;BME280;41125;48.752;9.168;2023-04-20T02:17:45;96673.06;;;2.53;79.46
55263;BME280;41125;48.752;9.168;2023-04-20T02:18:17;96676.78;;;2.52;79.52
55263;BME280;41125;48.752;9.168;2023-04-20T02:18:48;96668.19;;;2.50;79.55
55263;BME280;41125;48.752;9.168;2023-04-20T02:19:19;96673.56;;;2.50;80.03
55263;BME280;41125;48.752;9.168;2023-04-20T02:19:51;96671.13;;;2.49;79.80
55263;BME280;41125;48.752;9.168;2023-04-20T02:20:22;96668.69;;;2.47;80.06
55263;BME280;41125;48.752;9.168;2023-04-20T02:20:54;96668.69;;;2.47;80.06
55263;BME280;41125;48.752;9.168;2023-04-20T02:21:26;96663.31;;;2.47;80.14
55263;BME280;41125;48.752;9.168;2023-04-20T02:21:58;96669.50;;;2.48;79.83
55263;BME280;41125;48.752;9.168;2023-04-20T02:22:29;96657.72;;;2.49;79.85
55263;BME280;41125;48.752;9.168;2023-04-20T02:23:04;96668.69;;;2.47;79.85
55263;BME280;41125;48.752;9.168;2023-04-20T02:23:36;96667.88;;;2.47;79.95
55263;BME280;41125;48.752;9.168;2023-04-20T02:24:07;96667.88;;;2.47;80.07
55263;BME280;41125;48.752;9.168;2023-04-20T02:24:39;96672.41;;;2.46;80.17
55263;BME280;41125;48.752;9.168;2023-04-20T02:25:11;96664.94;;;2.48;80.21
55263;BME280;41125;48.752;9.168;2023-04-20T02:25:42;96664.94;;;2.48;79.98
55263;BME280;41125;48.752;9.168;2023-04-20T02:26:14;96664.94;;;2.48;79.71
55263;BME280;41125;48.752;9.168;2023-04-20T02:26:46;96657.97;;;2.47;79.78
55263;BME280;41125;48.752;9.168;2023-04-20T02:27:18;96659.28;;;2.45;79.70
55263;BME280;41125;48.752;9.168;2023-04-20T02:27:49;96665.44;;;2.45;79.92
55263;BME280;41125;48.752;9.168;2023-04-20T02:28:21;96666.25;;;2.46;79.70
55263;BME280;41125;48.752;9.168;2023-04-20T02:28:52;96664.63;;;2.45;79.73
55263;BME280;41125;48.752;9.168;2023-04-20T02:29:25;96666.50;;;2.44;80.04
55263;BME280;41125;48.752;9.168;2023-04-20T02:29:56;96665.44;;;2.45;80.04
55263;BME280;41125;48.752;9.168;2023-04-20T02:30:27;96658.22;;;2.46;79.80
55263;BME280;41125;48.752;9.168;2023-04-20T02:30:58;96659.28;;;2.45;79.92
55263;BME280;41125;48.752;9.168;2023-04-20T02:31:30;96659.03;;;2.46;79.58
55263;BME280;41125;48.752;9.168;2023-04-20T02:32:01;96655.53;;;2.46;79.69
55263;BME280;41125;48.752;9.168;2023-04-20T02:32:36;96661.69;;;2.46;79.61
55263;BME280;41125;48.752;9.168;2023-04-20T02:33:07;96653.91;;;2.45;79.55
55263;BME280;41125;48.752;9.168;2023-04-20T02:33:39;96654.72;;;2.45;79.61
55263;BME280;41125;48.752;9.168;2023-04-20T02:34:11;96657.41;;;2.45;79.69
55263;BME280;41125;48.752;9.168;2023-04-20T02:34:42;96658.47;;;2.44;79.73
55263;BME280;41125;48.752;9.168;2023-04-20T02:35:13;96661.13;;;2.44;79.51
55263;BME280;41125;48.752;9.168;2023-04-20T02:35:44;96650.44;;;2.44;79.83
55263;BME280;41125;48.752;9.168;2023-04-20T02:36:16;96656.84;;;2.43;80.05
55263;BME280;41125;48.752;9.168;2023-04-20T02:36:47;96665.44;;;2.45;79.74
55263;BME280;41125;48.752;9.168;2023-04-20T02:37:18;96658.47;;;2.44;79.94
55263;BME280;41125;48.752;9.168;2023-04-20T02:37:50;96663.81;;;2.44;79.76
55263;BME280;41125;48.752;9.168;2023-04-20T02:38:22;96658.47;;;2.44;79.65
55263;BME280;41125;48.752;9.168;2023-04-20T02:38:53;96663.81;;;2.44;79.73
55263;BME280;41125;48.752;9.168;2023-04-20T02:39:24;96657.94;;;2.42;80.14
55263;BME280;41125;48.752;9.168;2023-04-20T02:39:56;96657.94;;;2.42;80.06
55263;BME280;41125;48.752;9.168;2023-04-20T02:40:27;96655.25;;;2.42;80.26
55263;BME280;41125;48.752;9.168;2023-04-20T02:40:58;96655.25;;;2.42;79.79
55263;BME280;41125;48.752;9.168;2023-04-20T02:41:29;96656.31;;;2.41;79.65
55263;BME280;41125;48.752;9.168;2023-04-20T02:42:01;96652.00;;;2.40;79.66
55263;BME280;41125;48.752;9.168;2023-04-20T02:42:32;96659.78;;;2.42;80.22
55263;BME280;41125;48.752;9.168;2023-04-20T02:43:03;96653.63;;;2.41;80.11
55263;BME280;41125;48.752;9.168;2023-04-20T02:43:35;96657.38;;;2.40;79.98
55263;BME280;41125;48.752;9.168;2023-04-20T02:44:06;96647.94;;;2.38;80.11
55263;BME280;41125;48.752;9.168;2023-04-20T02:44:37;96653.78;;;2.34;80.81
55263;BME280;41125;48.752;9.168;2023-04-20T02:45:09;96645.19;;;2.32;80.77
55263;BME280;41125;48.752;9.168;2023-04-20T02:45:41;96650.81;;;2.31;81.10
55263;BME280;41125;48.752;9.168;2023-04-20T02:46:14;96654.53;;;2.30;80.88
55263;BME280;41125;48.752;9.168;2023-04-20T02:46:45;96648.37;;;2.29;81.12
55263;BME280;41125;48.752;9.168;2023-04-20T02:47:17;96653.97;;;2.28;80.93
55263;BME280;41125;48.752;9.168;2023-04-20T02:47:48;96644.88;;;2.29;81.04
55263;BME280;41125;48.752;9.168;2023-04-20T02:48:20;96652.41;;;2.32;80.88
55263;BME280;41125;48.752;9.168;2023-04-20T02:48:51;96657.53;;;2.33;80.73
55263;BME280;41125;48.752;9.168;2023-04-20T02:49:25;96656.72;;;2.33;80.73
55263;BME280;41125;48.752;9.168;2023-04-20T02:49:56;96645.44;;;2.31;80.96
55263;BME280;41125;48.752;9.168;2023-04-20T02:50:27;96654.53;;;2.30;80.63
55263;BME280;41125;48.752;9.168;2023-04-20T02:50:58;96653.47;;;2.31;80.86
55263;BME280;41125;48.752;9.168;2023-04-20T02:51:30;96647.06;;;2.32;80.16